createdAt,value
2023-02-28T00:00:24.551Z,5.7
2023-02-28T00:01:33.138Z,5.7
2023-02-28T00:02:41.175Z,5.7
2023-02-28T00:03:49.705Z,5.3
2023-02-28T00:04:58.011Z,5.3
2023-02-28T00:06:06.364Z,5.3
2023-02-28T00:07:14.884Z,5.4
2023-02-28T00:08:23.181Z,5.4
2023-02-28T00:09:31.497Z,5.4
2023-02-28T00:10:40.017Z,5.7
2023-02-28T00:11:48.354Z,5.7
2023-02-28T00:12:56.661Z,5.7
2023-02-28T00:14:05.184Z,5
2023-02-28T00:15:13.504Z,5
2023-02-28T00:16:21.917Z,5
2023-02-28T00:17:30.370Z,5.3
2023-02-28T00:18:38.691Z,5.3
2023-02-28T00:19:46.998Z,5.3
2023-02-28T00:20:55.527Z,5.7
2023-02-28T00:22:03.884Z,5.7
2023-02-28T00:23:12.208Z,5.7
2023-02-28T00:24:20.748Z,5.2
2023-02-28T00:25:29.081Z,5.2
2023-02-28T00:26:37.398Z,5.2
2023-02-28T00:27:45.932Z,5.3
2023-02-28T00:28:54.250Z,5.3
2023-02-28T00:30:02.562Z,5.3
2023-02-28T00:31:11.195Z,4.6
2023-02-28T00:32:19.421Z,4.6
2023-02-28T00:33:27.720Z,4.6
2023-02-28T00:34:36.239Z,4.9
2023-02-28T00:35:44.617Z,4.9
2023-02-28T00:36:52.877Z,4.9
2023-02-28T00:38:01.413Z,4.9
2023-02-28T00:39:09.705Z,4.9
2023-02-28T00:40:18.022Z,4.9
2023-02-28T00:41:26.748Z,4.7
2023-02-28T00:42:34.867Z,4.7
2023-02-28T00:43:43.204Z,4.7
2023-02-28T00:44:51.718Z,4.9
2023-02-28T00:46:00.110Z,4.9
2023-02-28T00:47:08.360Z,4.9
2023-02-28T00:48:16.896Z,4.8
2023-02-28T00:49:25.223Z,4.8
2023-02-28T00:50:33.541Z,4.8
2023-02-28T00:51:42.088Z,4.5
2023-02-28T00:52:50.365Z,4.5
2023-02-28T00:53:58.715Z,4.5
2023-02-28T00:55:07.205Z,4.2
2023-02-28T00:56:15.524Z,4.2
2023-02-28T00:57:23.846Z,4.2
2023-02-28T00:58:32.401Z,4.7
2023-02-28T00:59:40.697Z,4.7
2023-02-28T01:00:49.004Z,4.7
2023-02-28T01:01:57.530Z,5.2
2023-02-28T01:03:05.860Z,5.2
2023-02-28T01:04:14.190Z,5.2
2023-02-28T01:05:22.686Z,4.6
2023-02-28T01:06:31.004Z,4.6
2023-02-28T01:07:39.324Z,4.6
2023-02-28T01:08:47.861Z,5.1
2023-02-28T01:09:56.196Z,5.1
2023-02-28T01:11:04.507Z,5.1
2023-02-28T01:12:13.037Z,4.9
2023-02-28T01:13:21.348Z,4.9
2023-02-28T01:14:29.676Z,4.9
2023-02-28T01:15:38.231Z,5
2023-02-28T01:16:46.520Z,5
2023-02-28T01:17:54.810Z,5
2023-02-28T01:19:03.368Z,4.9
2023-02-28T01:20:11.673Z,4.9
2023-02-28T01:21:20.006Z,4.9
2023-02-28T01:22:28.533Z,4.7
2023-02-28T01:23:36.863Z,4.7
2023-02-28T01:24:45.170Z,4.7
2023-02-28T01:25:53.742Z,4.7
2023-02-28T01:27:01.997Z,4.7
2023-02-28T01:28:10.310Z,4.7
2023-02-28T01:29:18.845Z,4.8
2023-02-28T01:30:27.163Z,4.8
2023-02-28T01:31:35.542Z,4.8
2023-02-28T01:32:44.000Z,5
2023-02-28T01:33:52.337Z,5
2023-02-28T01:35:00.644Z,5
2023-02-28T01:36:09.232Z,5.1
2023-02-28T01:37:17.472Z,5.1
2023-02-28T01:38:25.778Z,5.1
2023-02-28T01:39:34.315Z,4.9
2023-02-28T01:40:42.637Z,4.9
2023-02-28T01:41:50.973Z,4.9
2023-02-28T01:42:59.469Z,5
2023-02-28T01:44:07.792Z,5
2023-02-28T01:45:16.091Z,5
2023-02-28T01:46:24.663Z,4.9
2023-02-28T01:47:32.967Z,4.9
2023-02-28T01:48:41.253Z,4.9
2023-02-28T01:49:49.805Z,4.9
2023-02-28T01:50:58.151Z,4.9
2023-02-28T01:52:06.472Z,4.9
2023-02-28T01:53:15.000Z,5.1
2023-02-28T01:54:23.323Z,5.1
2023-02-28T01:55:31.628Z,5.1
2023-02-28T01:56:40.145Z,5.1
2023-02-28T01:57:48.480Z,5.1
2023-02-28T01:58:56.789Z,5.1
2023-02-28T02:00:05.319Z,4.4
2023-02-28T02:01:13.630Z,4.4
2023-02-28T02:02:21.948Z,4.4
2023-02-28T02:03:30.464Z,5.1
2023-02-28T02:04:38.797Z,5.1
2023-02-28T02:05:47.130Z,5.1
2023-02-28T02:06:55.665Z,4.7
2023-02-28T02:08:03.974Z,4.7
2023-02-28T02:09:12.300Z,4.7
2023-02-28T02:10:20.831Z,4.7
2023-02-28T02:11:29.367Z,4.7
2023-02-28T02:12:37.454Z,4.7
2023-02-28T02:13:46.006Z,5.2
2023-02-28T02:14:54.283Z,5.2
2023-02-28T02:16:02.664Z,5.2
2023-02-28T02:17:11.129Z,4.7
2023-02-28T02:18:19.434Z,4.7
2023-02-28T02:19:27.755Z,4.7
2023-02-28T02:20:36.312Z,4.9
2023-02-28T02:21:44.630Z,4.9
2023-02-28T02:22:52.962Z,4.9
2023-02-28T02:24:01.464Z,4.8
2023-02-28T02:25:09.788Z,4.8
2023-02-28T02:26:18.099Z,4.8
2023-02-28T02:27:26.619Z,4.7
2023-02-28T02:28:34.942Z,4.7
2023-02-28T02:29:43.358Z,4.7
2023-02-28T02:30:51.781Z,4.9
2023-02-28T02:32:00.136Z,4.9
2023-02-28T02:33:08.443Z,4.9
2023-02-28T02:34:16.965Z,5.2
2023-02-28T02:35:25.316Z,5.2
2023-02-28T02:36:33.613Z,5.2
2023-02-28T02:37:42.134Z,4.6
2023-02-28T02:38:50.458Z,4.6
2023-02-28T02:39:58.790Z,4.6
2023-02-28T02:41:07.306Z,4.9
2023-02-28T02:42:15.615Z,4.9
2023-02-28T02:43:23.924Z,4.9
2023-02-28T02:44:32.454Z,5.3
2023-02-28T02:45:40.792Z,5.3
2023-02-28T02:46:49.189Z,5.3
2023-02-28T02:47:57.595Z,5.7
2023-02-28T02:49:05.897Z,5.7
2023-02-28T02:50:14.224Z,5.7
2023-02-28T02:51:22.747Z,5.2
2023-02-28T02:52:31.052Z,5.2
2023-02-28T02:53:39.373Z,5.2
2023-02-28T02:54:47.918Z,5.2
2023-02-28T02:55:56.219Z,5.2
2023-02-28T02:57:04.528Z,5.2
2023-02-28T02:58:13.036Z,4.8
2023-02-28T02:59:21.352Z,4.8
2023-02-28T03:00:29.685Z,4.8
2023-02-28T03:01:38.247Z,4.8
2023-02-28T03:02:46.541Z,4.8
2023-02-28T03:03:54.895Z,4.8
2023-02-28T03:05:03.380Z,5.6
2023-02-28T03:06:11.690Z,5.6
2023-02-28T03:07:20.010Z,5.6
2023-02-28T03:08:28.528Z,5.5
2023-02-28T03:09:36.840Z,5.5
2023-02-28T03:10:45.153Z,5.5
2023-02-28T03:11:53.683Z,5.9
2023-02-28T03:13:01.990Z,5.9
2023-02-28T03:14:10.303Z,5.9
2023-02-28T03:15:18.826Z,6.1
2023-02-28T03:16:27.167Z,6.1
2023-02-28T03:17:35.496Z,6.1
2023-02-28T03:18:44.003Z,5.8
2023-02-28T03:19:52.330Z,5.8
2023-02-28T03:21:00.653Z,5.8
2023-02-28T03:22:09.170Z,5.8
2023-02-28T03:23:17.485Z,5.8
2023-02-28T03:24:25.802Z,5.8
2023-02-28T03:25:34.371Z,5.6
2023-02-28T03:26:42.670Z,5.6
2023-02-28T03:27:50.981Z,5.6
2023-02-28T03:28:59.503Z,5.7
2023-02-28T03:30:07.815Z,5.7
2023-02-28T03:31:16.161Z,5.7
2023-02-28T03:32:24.724Z,6.3
2023-02-28T03:33:33.003Z,6.3
2023-02-28T03:34:41.290Z,6.3
2023-02-28T03:35:49.828Z,6.1
2023-02-28T03:36:58.228Z,6.1
2023-02-28T03:38:06.535Z,6.1
2023-02-28T03:39:15.044Z,6.2
2023-02-28T03:40:23.362Z,6.2
2023-02-28T03:41:31.965Z,6.2
2023-02-28T03:42:40.193Z,6.6
2023-02-28T03:43:48.523Z,6.6
2023-02-28T03:44:56.850Z,6.6
2023-02-28T03:46:05.412Z,6.1
2023-02-28T03:47:13.700Z,6.1
2023-02-28T03:48:22.012Z,6.1
2023-02-28T03:49:30.570Z,6.7
2023-02-28T03:50:38.848Z,6.7
2023-02-28T03:51:47.168Z,6.7
2023-02-28T03:52:55.683Z,7
2023-02-28T03:54:03.999Z,7
2023-02-28T03:55:12.317Z,7
2023-02-28T03:56:20.846Z,7
2023-02-28T03:57:29.165Z,7
2023-02-28T03:58:37.492Z,7
2023-02-28T03:59:46.027Z,7.6
2023-02-28T04:00:54.372Z,7.6
2023-02-28T04:02:02.767Z,7.6
2023-02-28T04:03:11.223Z,7.4
2023-02-28T04:04:19.553Z,7.4
2023-02-28T04:05:27.876Z,7.4
2023-02-28T04:06:36.383Z,8
2023-02-28T04:07:44.714Z,8
2023-02-28T04:08:53.012Z,8
2023-02-28T04:10:01.561Z,8
2023-02-28T04:11:09.873Z,8
2023-02-28T04:12:18.174Z,8
2023-02-28T04:13:26.701Z,8
2023-02-28T04:14:35.011Z,8
2023-02-28T04:15:43.431Z,8
2023-02-28T04:16:51.897Z,8.2
2023-02-28T04:18:00.162Z,8.2
2023-02-28T04:19:08.503Z,8.2
2023-02-28T04:20:17.011Z,8.5
2023-02-28T04:21:27.447Z,8.5
2023-02-28T04:22:33.648Z,8.5
2023-02-28T04:23:42.185Z,8.8
2023-02-28T04:24:50.508Z,8.8
2023-02-28T04:25:58.824Z,8.8
2023-02-28T04:27:07.353Z,8.9
2023-02-28T04:28:15.662Z,8.9
2023-02-28T04:29:23.988Z,8.9
2023-02-28T04:30:32.504Z,9.7
2023-02-28T04:31:40.835Z,9.7
2023-02-28T04:32:49.128Z,9.7
2023-02-28T04:33:57.749Z,9.8
2023-02-28T04:35:06.111Z,9.8
2023-02-28T04:36:14.505Z,9.8
2023-02-28T04:37:23.089Z,10.5
2023-02-28T04:38:31.387Z,10.5
2023-02-28T04:39:39.719Z,10.5
2023-02-28T04:40:48.246Z,10
2023-02-28T04:41:56.577Z,10
2023-02-28T04:43:05.572Z,10
2023-02-28T04:44:14.101Z,10
2023-02-28T04:45:22.410Z,10
2023-02-28T04:46:30.732Z,10
2023-02-28T04:47:39.252Z,10.1
2023-02-28T04:48:47.549Z,10.1
2023-02-28T04:49:55.852Z,10.1
2023-02-28T04:51:04.388Z,10.6
2023-02-28T04:52:12.688Z,10.6
2023-02-28T04:53:21.043Z,10.6
2023-02-28T04:54:29.546Z,10.8
2023-02-28T04:55:37.858Z,10.8
2023-02-28T04:56:46.170Z,10.8
2023-02-28T04:57:54.722Z,10.5
2023-02-28T04:59:03.042Z,10.5
2023-02-28T05:00:11.377Z,10.5
2023-02-28T05:01:19.917Z,10
2023-02-28T05:02:28.256Z,10
2023-02-28T05:03:36.520Z,10
2023-02-28T05:04:45.161Z,10.3
2023-02-28T05:05:53.422Z,10.3
2023-02-28T05:07:01.762Z,10.3
2023-02-28T05:08:10.276Z,10.2
2023-02-28T05:09:18.603Z,10.2
2023-02-28T05:10:26.907Z,10.2
2023-02-28T05:11:35.421Z,10
2023-02-28T05:12:43.759Z,10
2023-02-28T05:13:52.081Z,10
2023-02-28T05:15:00.590Z,10.7
2023-02-28T05:16:08.940Z,10.7
2023-02-28T05:17:17.218Z,10.7
2023-02-28T05:18:25.761Z,10.7
2023-02-28T05:19:34.076Z,10.7
2023-02-28T05:20:42.390Z,10.7
2023-02-28T05:21:50.926Z,10.3
2023-02-28T05:22:59.235Z,10.3
2023-02-28T05:24:07.576Z,10.3
2023-02-28T05:25:16.131Z,10.9
2023-02-28T05:26:24.427Z,10.9
2023-02-28T05:27:32.755Z,10.9
2023-02-28T05:28:41.288Z,10
2023-02-28T05:29:49.602Z,10
2023-02-28T05:30:57.932Z,10
2023-02-28T05:32:06.626Z,10.9
2023-02-28T05:33:14.806Z,10.9
2023-02-28T05:34:23.106Z,10.9
2023-02-28T05:35:31.662Z,10.2
2023-02-28T05:36:40.002Z,10.2
2023-02-28T05:37:48.270Z,10.2
2023-02-28T05:38:56.818Z,11.7
2023-02-28T05:40:05.164Z,11.7
2023-02-28T05:41:13.474Z,11.7
2023-02-28T05:42:21.982Z,11.4
2023-02-28T05:43:30.298Z,11.4
2023-02-28T05:44:38.622Z,11.4
2023-02-28T05:45:47.165Z,10.6
2023-02-28T05:46:55.474Z,10.6
2023-02-28T05:48:03.783Z,10.6
2023-02-28T05:49:12.302Z,10.9
2023-02-28T05:50:20.641Z,10.9
2023-02-28T05:51:29.166Z,10.9
2023-02-28T05:52:37.461Z,11.4
2023-02-28T05:53:45.820Z,11.4
2023-02-28T05:54:54.116Z,11.4
2023-02-28T05:56:02.624Z,12.4
2023-02-28T05:57:19.025Z,12.4
2023-02-28T05:58:19.261Z,12.4
2023-02-28T05:59:27.795Z,12.4
2023-02-28T06:00:36.136Z,12.4
2023-02-28T06:01:44.452Z,12.4
2023-02-28T06:02:53.000Z,13.1
2023-02-28T06:04:01.311Z,13.1
2023-02-28T06:05:09.651Z,13.1
2023-02-28T06:06:18.163Z,12.8
2023-02-28T06:07:26.480Z,12.8
2023-02-28T06:08:34.789Z,12.8
2023-02-28T06:09:43.332Z,12.4
2023-02-28T06:10:51.671Z,12.4
2023-02-28T06:11:59.975Z,12.4
2023-02-28T06:13:08.515Z,12.9
2023-02-28T06:14:16.790Z,12.9
2023-02-28T06:15:25.117Z,12.9
2023-02-28T06:16:33.673Z,13.9
2023-02-28T06:17:41.948Z,13.9
2023-02-28T06:18:50.290Z,13.9
2023-02-28T06:19:58.810Z,13.8
2023-02-28T06:21:07.146Z,13.8
2023-02-28T06:22:15.465Z,13.8
2023-02-28T06:23:23.991Z,13.3
2023-02-28T06:24:32.330Z,13.3
2023-02-28T06:25:40.651Z,13.3
2023-02-28T06:26:49.194Z,13.7
2023-02-28T06:27:57.501Z,13.7
2023-02-28T06:29:05.845Z,13.7
2023-02-28T06:30:14.334Z,16.6
2023-02-28T06:31:22.708Z,16.6
2023-02-28T06:32:31.000Z,16.6
2023-02-28T06:33:39.502Z,31
2023-02-28T06:34:47.824Z,31
2023-02-28T06:35:56.179Z,31
2023-02-28T06:37:04.673Z,45.900002
2023-02-28T06:38:12.982Z,45.900002
2023-02-28T06:39:21.297Z,45.900002
2023-02-28T06:40:29.840Z,143.5
2023-02-28T06:41:51.921Z,143.5
2023-02-28T06:42:46.493Z,143.5
2023-02-28T06:43:55.031Z,16.5
2023-02-28T06:45:03.380Z,16.5
2023-02-28T06:46:11.705Z,16.5
2023-02-28T06:47:20.204Z,14.9
2023-02-28T06:48:28.519Z,14.9
2023-02-28T06:49:36.844Z,14.9
2023-02-28T06:50:45.403Z,16.700001
2023-02-28T06:51:53.729Z,16.700001
2023-02-28T06:53:02.039Z,16.700001
2023-02-28T06:54:10.565Z,15.1
2023-02-28T06:55:18.902Z,15.1
2023-02-28T06:56:27.223Z,15.1
2023-02-28T06:57:35.836Z,17.4
2023-02-28T06:58:44.151Z,17.4
2023-02-28T06:59:52.468Z,17.4
2023-02-28T07:01:01.059Z,99
2023-02-28T07:02:09.352Z,99
2023-02-28T07:03:17.669Z,99
2023-02-28T07:04:26.221Z,17.9
2023-02-28T07:05:34.523Z,17.9
2023-02-28T07:06:42.856Z,17.9
2023-02-28T07:07:51.373Z,13.7
2023-02-28T07:08:59.695Z,13.7
2023-02-28T07:10:08.022Z,13.7
2023-02-28T07:11:16.558Z,13.3
2023-02-28T07:12:24.907Z,13.3
2023-02-28T07:13:33.189Z,13.3
2023-02-28T07:14:41.713Z,12.8
2023-02-28T07:15:50.048Z,12.8
2023-02-28T07:16:58.412Z,12.8
2023-02-28T07:18:06.916Z,12.5
2023-02-28T07:19:15.228Z,12.5
2023-02-28T07:20:23.548Z,12.5
2023-02-28T07:21:32.271Z,11.8
2023-02-28T07:22:40.410Z,11.8
2023-02-28T07:23:48.728Z,11.8
2023-02-28T07:24:57.274Z,14.4
2023-02-28T07:26:05.614Z,14.4
2023-02-28T07:27:13.942Z,14.4
2023-02-28T07:28:22.461Z,13.7
2023-02-28T07:29:30.776Z,13.7
2023-02-28T07:30:39.076Z,13.7
2023-02-28T07:31:47.701Z,10
2023-02-28T07:32:55.984Z,10
2023-02-28T07:34:04.313Z,10
2023-02-28T07:35:12.813Z,10.2
2023-02-28T07:36:21.152Z,10.2
2023-02-28T07:37:29.474Z,10.2
2023-02-28T07:38:37.994Z,9.9
2023-02-28T07:39:46.317Z,9.9
2023-02-28T07:40:54.696Z,9.9
2023-02-28T07:42:03.218Z,9.8
2023-02-28T07:43:11.562Z,9.8
2023-02-28T07:44:19.888Z,9.8
2023-02-28T07:45:28.431Z,10.1
2023-02-28T07:46:37.348Z,10.1
2023-02-28T07:47:45.062Z,10.1
2023-02-28T07:48:53.614Z,9.7
2023-02-28T07:50:01.916Z,9.7
2023-02-28T07:51:10.255Z,9.7
2023-02-28T07:52:18.790Z,29.299999
2023-02-28T07:53:27.102Z,29.299999
2023-02-28T07:54:35.459Z,29.299999
2023-02-28T07:55:44.032Z,11.9
2023-02-28T07:56:52.453Z,11.9
2023-02-28T07:58:00.763Z,11.9
2023-02-28T07:59:09.282Z,12.5
2023-02-28T08:00:17.689Z,12.5
2023-02-28T08:01:26.016Z,12.5
2023-02-28T08:02:34.465Z,16.5
2023-02-28T08:03:42.777Z,16.5
2023-02-28T08:04:51.145Z,16.5
2023-02-28T08:05:59.610Z,9.9
2023-02-28T08:07:07.960Z,9.9
2023-02-28T08:08:16.269Z,9.9
2023-02-28T08:09:24.805Z,9.6
2023-02-28T08:10:33.109Z,9.6
2023-02-28T08:11:41.427Z,9.6
2023-02-28T08:12:49.949Z,9
2023-02-28T08:13:58.280Z,9
2023-02-28T08:15:06.603Z,9
2023-02-28T08:16:15.319Z,9.3
2023-02-28T08:17:23.495Z,9.3
2023-02-28T08:18:31.802Z,9.3
2023-02-28T08:19:40.348Z,9.1
2023-02-28T08:20:48.691Z,9.1
2023-02-28T08:21:57.000Z,9.1
2023-02-28T08:23:05.545Z,9.2
2023-02-28T08:24:13.862Z,9.2
2023-02-28T08:25:22.193Z,9.2
2023-02-28T08:26:30.712Z,8.8
2023-02-28T08:27:39.039Z,8.8
2023-02-28T08:28:47.351Z,8.8
2023-02-28T08:29:55.874Z,8.8
2023-02-28T08:31:04.205Z,8.8
2023-02-28T08:32:23.710Z,8.8
2023-02-28T08:33:21.070Z,8.7
2023-02-28T08:34:29.388Z,8.7
2023-02-28T08:35:37.752Z,8.7
2023-02-28T08:36:46.261Z,8.9
2023-02-28T08:37:54.559Z,8.9
2023-02-28T08:39:02.917Z,8.9
2023-02-28T08:40:11.453Z,8.3
2023-02-28T08:41:19.778Z,8.3
2023-02-28T08:42:28.099Z,8.3
2023-02-28T08:43:36.637Z,9.1
2023-02-28T08:44:44.983Z,9.1
2023-02-28T08:45:53.322Z,9.1
2023-02-28T08:47:01.827Z,7.9
2023-02-28T08:48:10.128Z,7.9
2023-02-28T08:49:18.464Z,7.9
2023-02-28T08:50:27.005Z,7.9
2023-02-28T08:51:35.341Z,7.9
2023-02-28T08:52:43.663Z,7.9
2023-02-28T08:53:52.143Z,8.3
2023-02-28T08:55:00.461Z,8.3
2023-02-28T08:56:08.806Z,8.3
2023-02-28T08:57:17.336Z,7.5
2023-02-28T08:58:25.667Z,7.5
2023-02-28T08:59:34.023Z,7.5
2023-02-28T09:00:42.602Z,7.9
2023-02-28T09:01:50.852Z,7.9
2023-02-28T09:02:59.174Z,7.9
2023-02-28T09:04:07.713Z,7.5
2023-02-28T09:05:16.072Z,7.5
2023-02-28T09:06:24.397Z,7.5
2023-02-28T09:07:32.970Z,7.6
2023-02-28T09:08:41.332Z,7.6
2023-02-28T09:09:49.623Z,7.6
2023-02-28T09:10:58.178Z,7.8
2023-02-28T09:12:06.504Z,7.8
2023-02-28T09:13:14.825Z,7.8
2023-02-28T09:14:23.370Z,7.2
2023-02-28T09:15:31.680Z,7.2
2023-02-28T09:16:40.045Z,7.2
2023-02-28T09:17:48.717Z,6.7
2023-02-28T09:18:56.857Z,6.7
2023-02-28T09:20:05.190Z,6.7
2023-02-28T09:21:13.720Z,6.9
2023-02-28T09:22:22.042Z,6.9
2023-02-28T09:23:30.368Z,6.9
2023-02-28T09:24:41.997Z,6.4
2023-02-28T09:25:47.243Z,6.4
2023-02-28T09:27:03.996Z,6.4
2023-02-28T09:28:04.107Z,6.8
2023-02-28T09:29:12.467Z,6.8
2023-02-28T09:30:20.745Z,6.8
2023-02-28T09:31:29.289Z,6.7
2023-02-28T09:32:37.604Z,6.7
2023-02-28T09:33:45.944Z,6.7
2023-02-28T09:34:54.506Z,7.1
2023-02-28T09:36:02.854Z,7.1
2023-02-28T09:37:11.147Z,7.1
2023-02-28T09:38:19.680Z,6.9
2023-02-28T09:39:28.099Z,6.9
2023-02-28T09:40:36.350Z,6.9
2023-02-28T09:41:44.859Z,7.3
2023-02-28T09:42:53.183Z,7.3
2023-02-28T09:44:01.522Z,7.3
2023-02-28T09:45:10.053Z,24.4
2023-02-28T09:46:18.445Z,24.4
2023-02-28T09:47:26.695Z,24.4
2023-02-28T09:48:35.251Z,31.4
2023-02-28T09:49:43.644Z,31.4
2023-02-28T09:50:51.891Z,31.4
2023-02-28T09:52:00.412Z,9.7
2023-02-28T09:53:08.728Z,9.7
2023-02-28T09:54:17.054Z,9.7
2023-02-28T09:55:26.412Z,7.2
2023-02-28T09:56:33.921Z,7.2
2023-02-28T09:57:42.203Z,7.2
2023-02-28T09:58:50.756Z,6.7
2023-02-28T09:59:59.059Z,6.7
2023-02-28T10:01:07.452Z,6.7
2023-02-28T10:02:15.907Z,6.2
2023-02-28T10:03:24.222Z,6.2
2023-02-28T10:04:32.575Z,6.2
2023-02-28T10:05:42.803Z,6.8
2023-02-28T10:06:49.407Z,6.8
2023-02-28T10:07:57.712Z,6.8
2023-02-28T10:09:06.248Z,6.5
2023-02-28T10:10:14.569Z,6.5
2023-02-28T10:11:22.882Z,6.5
2023-02-28T10:12:31.433Z,6.7
2023-02-28T10:13:39.721Z,6.7
2023-02-28T10:14:48.312Z,6.7
2023-02-28T10:15:56.876Z,27.9
2023-02-28T10:17:05.133Z,27.9
2023-02-28T10:18:13.805Z,27.9
2023-02-28T10:19:21.966Z,7.1
2023-02-28T10:20:30.315Z,7.1
2023-02-28T10:21:38.629Z,7.1
2023-02-28T10:22:47.160Z,7.3
2023-02-28T10:23:55.473Z,7.3
2023-02-28T10:25:04.977Z,7.3
2023-02-28T10:26:12.317Z,6.5
2023-02-28T10:27:20.642Z,6.5
2023-02-28T10:28:28.995Z,6.5
2023-02-28T10:29:37.505Z,5.3
2023-02-28T10:30:45.852Z,5.3
2023-02-28T10:31:54.139Z,5.3
2023-02-28T10:33:02.688Z,6
2023-02-28T10:34:10.972Z,6
2023-02-28T10:35:19.294Z,6
2023-02-28T10:36:28.121Z,6.5
2023-02-28T10:37:36.120Z,6.5
2023-02-28T10:38:44.474Z,6.5
2023-02-28T10:39:53.010Z,6.8
2023-02-28T10:41:01.330Z,6.8
2023-02-28T10:42:09.639Z,6.8
2023-02-28T10:43:18.161Z,5.9
2023-02-28T10:44:26.515Z,5.9
2023-02-28T10:45:34.819Z,5.9
2023-02-28T10:46:43.457Z,7
2023-02-28T10:47:53.393Z,7
2023-02-28T10:48:59.965Z,7
2023-02-28T10:50:08.506Z,6.6
2023-02-28T10:51:16.828Z,6.6
2023-02-28T10:52:25.141Z,6.6
2023-02-28T10:53:35.982Z,6.2
2023-02-28T10:54:41.970Z,6.2
2023-02-28T10:55:50.283Z,6.2
2023-02-28T10:56:58.800Z,6.5
2023-02-28T10:58:07.155Z,6.5
2023-02-28T10:59:15.445Z,6.5
2023-02-28T11:00:24.021Z,6.6
2023-02-28T11:01:32.621Z,6.6
2023-02-28T11:02:40.640Z,6.6
2023-02-28T11:03:49.159Z,6.9
2023-02-28T11:04:57.505Z,6.9
2023-02-28T11:06:05.814Z,6.9
2023-02-28T11:07:14.325Z,6.6
2023-02-28T11:08:22.631Z,6.6
2023-02-28T11:09:30.954Z,6.6
2023-02-28T11:10:39.475Z,6.7
2023-02-28T11:11:47.784Z,6.7
2023-02-28T11:12:56.098Z,6.7
2023-02-28T11:14:04.636Z,6.5
2023-02-28T11:15:12.957Z,6.5
2023-02-28T11:16:21.336Z,6.5
2023-02-28T11:17:29.809Z,7.5
2023-02-28T11:18:38.102Z,7.5
2023-02-28T11:19:46.432Z,7.5
2023-02-28T11:20:54.977Z,13.1
2023-02-28T11:22:03.265Z,13.1
2023-02-28T11:23:11.580Z,13.1
2023-02-28T11:24:20.108Z,11.4
2023-02-28T11:25:28.447Z,11.4
2023-02-28T11:26:36.756Z,11.4
2023-02-28T11:27:45.295Z,7.6
2023-02-28T11:28:53.612Z,7.6
2023-02-28T11:30:01.940Z,7.6
2023-02-28T11:31:10.473Z,6.5
2023-02-28T11:32:18.896Z,6.5
2023-02-28T11:33:27.097Z,6.5
2023-02-28T11:34:35.633Z,6.5
2023-02-28T11:35:43.984Z,6.5
2023-02-28T11:36:52.277Z,6.5
2023-02-28T11:38:00.802Z,7.8
2023-02-28T11:39:09.108Z,7.8
2023-02-28T11:40:17.495Z,7.8
2023-02-28T11:41:25.961Z,7.5
2023-02-28T11:42:34.290Z,7.5
2023-02-28T11:43:42.601Z,7.5
2023-02-28T11:44:51.159Z,7.4
2023-02-28T11:45:59.461Z,7.4
2023-02-28T11:47:07.784Z,7.4
2023-02-28T11:48:16.324Z,7.6
2023-02-28T11:49:24.622Z,7.6
2023-02-28T11:50:32.973Z,7.6
2023-02-28T11:51:41.496Z,7.5
2023-02-28T11:52:49.827Z,7.5
2023-02-28T11:53:58.128Z,7.5
2023-02-28T11:55:06.688Z,7.5
2023-02-28T11:56:15.012Z,7.5
2023-02-28T11:57:23.325Z,7.5
2023-02-28T11:58:31.846Z,7.1
2023-02-28T11:59:40.178Z,7.1
2023-02-28T12:00:48.509Z,7.1
2023-02-28T12:01:57.027Z,7.1
2023-02-28T12:03:05.377Z,7.1
2023-02-28T12:04:13.681Z,7.1
2023-02-28T12:05:22.199Z,7.2
2023-02-28T12:06:30.517Z,7.2
2023-02-28T12:07:38.830Z,7.2
2023-02-28T12:08:47.360Z,7.2
2023-02-28T12:09:55.702Z,7.2
2023-02-28T12:11:04.058Z,7.2
2023-02-28T12:12:12.948Z,7.9
2023-02-28T12:13:21.081Z,7.9
2023-02-28T12:14:29.404Z,7.9
2023-02-28T12:15:37.954Z,7.2
2023-02-28T12:16:46.292Z,7.2
2023-02-28T12:17:54.611Z,7.2
2023-02-28T12:19:03.152Z,8.5
2023-02-28T12:20:11.578Z,8.5
2023-02-28T12:21:19.954Z,8.5
2023-02-28T12:22:28.455Z,7.5
2023-02-28T12:23:36.773Z,7.5
2023-02-28T12:24:45.085Z,7.5
2023-02-28T12:25:53.641Z,8.4
2023-02-28T12:27:01.943Z,8.4
2023-02-28T12:28:10.266Z,8.4
2023-02-28T12:29:18.806Z,8.9
2023-02-28T12:30:27.146Z,8.9
2023-02-28T12:31:35.471Z,8.9
2023-02-28T12:32:44.000Z,7.8
2023-02-28T12:33:52.325Z,7.8
2023-02-28T12:35:00.657Z,7.8
2023-02-28T12:36:09.258Z,7.9
2023-02-28T12:37:17.508Z,7.9
2023-02-28T12:38:25.844Z,7.9
2023-02-28T12:39:39.056Z,8
2023-02-28T12:40:42.681Z,8
2023-02-28T12:41:51.044Z,8
2023-02-28T12:42:59.587Z,8.1
2023-02-28T12:44:07.928Z,8.1
2023-02-28T12:45:16.252Z,8.1
2023-02-28T12:46:24.864Z,8.6
2023-02-28T12:47:33.122Z,8.6
2023-02-28T12:48:41.452Z,8.6
2023-02-28T12:49:49.970Z,8.5
2023-02-28T12:50:58.312Z,8.5
2023-02-28T12:52:06.647Z,8.5
2023-02-28T12:53:15.157Z,8
2023-02-28T12:54:23.474Z,8
2023-02-28T12:55:31.831Z,8
2023-02-28T12:56:40.373Z,8.2
2023-02-28T12:57:48.695Z,8.2
2023-02-28T12:58:57.012Z,8.2
2023-02-28T13:00:05.521Z,8.3
2023-02-28T13:01:13.870Z,8.3
2023-02-28T13:02:22.225Z,8.3
2023-02-28T13:03:30.715Z,8.3
2023-02-28T13:04:39.034Z,8.3
2023-02-28T13:05:47.329Z,8.3
2023-02-28T13:06:55.866Z,8.2
2023-02-28T13:08:04.235Z,8.2
2023-02-28T13:09:12.504Z,8.2
2023-02-28T13:10:21.023Z,8.2
2023-02-28T13:11:29.351Z,8.2
2023-02-28T13:12:37.654Z,8.2
2023-02-28T13:13:46.182Z,8.3
2023-02-28T13:14:54.530Z,8.3
2023-02-28T13:16:02.913Z,8.3
2023-02-28T13:17:11.529Z,7.8
2023-02-28T13:18:19.853Z,7.8
2023-02-28T13:19:28.226Z,7.8
2023-02-28T13:20:36.805Z,8.2
2023-02-28T13:21:45.212Z,8.2
2023-02-28T13:22:53.540Z,8.2
2023-02-28T13:24:02.133Z,8.3
2023-02-28T13:25:10.510Z,8.3
2023-02-28T13:26:18.876Z,8.3
2023-02-28T13:27:27.485Z,8.7
2023-02-28T13:28:35.831Z,8.7
2023-02-28T13:29:44.237Z,8.7
2023-02-28T13:30:52.897Z,8.2
2023-02-28T13:32:01.157Z,8.2
2023-02-28T13:33:09.634Z,8.2
2023-02-28T13:34:18.215Z,8.1
2023-02-28T13:35:26.585Z,8.1
2023-02-28T13:36:34.968Z,8.1
2023-02-28T13:37:43.554Z,8.1
2023-02-28T13:38:52.003Z,8.1
2023-02-28T13:40:00.411Z,8.1
2023-02-28T13:41:08.927Z,8.4
2023-02-28T13:42:17.297Z,8.4
2023-02-28T13:43:34.674Z,8.4
2023-02-28T13:44:34.225Z,8.1
2023-02-28T13:45:42.686Z,8.1
2023-02-28T13:46:51.728Z,8.1
2023-02-28T13:47:59.622Z,8.2
2023-02-28T13:49:07.993Z,8.2
2023-02-28T13:50:17.468Z,8.2
2023-02-28T13:51:24.959Z,8.3
2023-02-28T13:52:33.305Z,8.3
2023-02-28T13:53:41.671Z,8.3
2023-02-28T13:54:50.534Z,8.2
2023-02-28T13:55:58.652Z,8.2
2023-02-28T13:57:06.988Z,8.2
2023-02-28T13:58:15.574Z,8.4
2023-02-28T13:59:23.923Z,8.4
2023-02-28T14:00:32.307Z,8.4
2023-02-28T14:01:41.195Z,9
2023-02-28T14:02:50.115Z,9
2023-02-28T14:03:57.922Z,9
2023-02-28T14:05:06.595Z,9.1
2023-02-28T14:06:14.930Z,9.1
2023-02-28T14:07:23.326Z,9.1
2023-02-28T14:08:31.900Z,8.9
2023-02-28T14:09:40.283Z,8.9
2023-02-28T14:10:49.238Z,8.9
2023-02-28T14:11:58.005Z,8.3
2023-02-28T14:13:06.364Z,8.3
2023-02-28T14:14:15.084Z,8.3
2023-02-28T14:15:23.663Z,8.4
2023-02-28T14:16:32.341Z,8.4
2023-02-28T14:17:40.448Z,8.4
2023-02-28T14:18:49.033Z,8.6
2023-02-28T14:19:57.394Z,8.6
2023-02-28T14:21:05.749Z,8.6
2023-02-28T14:22:14.319Z,8.6
2023-02-28T14:23:22.669Z,8.6
2023-02-28T14:24:31.078Z,8.6
2023-02-28T14:25:39.654Z,9
2023-02-28T14:26:48.023Z,9
2023-02-28T14:27:56.451Z,9
2023-02-28T14:29:04.994Z,8.4
2023-02-28T14:30:13.346Z,8.4
2023-02-28T14:31:21.722Z,8.4
2023-02-28T15:04:34.989Z,0
2023-02-28T15:05:43.301Z,0
2023-02-28T15:06:51.703Z,0
2023-02-28T15:08:00.275Z,9.3
2023-02-28T15:09:08.642Z,9.3
2023-02-28T15:10:16.988Z,9.3
2023-02-28T15:11:25.584Z,9.4
2023-02-28T15:12:33.966Z,9.4
2023-02-28T15:13:42.369Z,9.4
2023-02-28T15:14:52.045Z,10.3
2023-02-28T15:16:02.216Z,10.3
2023-02-28T15:17:07.640Z,10.3
2023-02-28T15:18:16.241Z,9.2
2023-02-28T15:19:24.592Z,9.2
2023-02-28T15:20:32.972Z,9.2
2023-02-28T15:21:41.516Z,9.1
2023-02-28T15:22:49.969Z,9.1
2023-02-28T15:23:58.337Z,9.1
2023-02-28T15:25:06.881Z,9.1
2023-02-28T15:26:15.376Z,9.1
2023-02-28T15:27:23.712Z,9.1
2023-02-28T15:28:32.359Z,9.2
2023-02-28T15:29:40.730Z,9.2
2023-02-28T15:30:49.101Z,9.2
2023-02-28T15:31:58.377Z,10
2023-02-28T15:33:06.121Z,10
2023-02-28T15:34:14.407Z,10
2023-02-28T15:35:22.949Z,10.3
2023-02-28T15:36:31.679Z,10.3
2023-02-28T15:37:39.745Z,10.3
2023-02-28T15:38:48.258Z,10.7
2023-02-28T15:39:56.664Z,10.7
2023-02-28T15:41:05.009Z,10.7
2023-02-28T15:42:13.589Z,9.9
2023-02-28T15:43:21.979Z,9.9
2023-02-28T15:44:30.361Z,9.9
2023-02-28T15:45:38.954Z,10
2023-02-28T15:46:47.288Z,10
2023-02-28T15:47:57.855Z,10
2023-02-28T15:49:04.368Z,10.8
2023-02-28T15:50:12.782Z,10.8
2023-02-28T15:51:21.153Z,10.8
2023-02-28T15:52:29.743Z,10.4
2023-02-28T15:53:38.079Z,10.4
2023-02-28T15:54:46.510Z,10.4
2023-02-28T15:55:55.047Z,9.9
2023-02-28T15:57:03.412Z,9.9
2023-02-28T15:58:11.781Z,9.9
2023-02-28T15:59:20.364Z,10.5
2023-02-28T16:00:28.772Z,10.5
2023-02-28T16:01:37.190Z,10.5
2023-02-28T16:02:46.487Z,10.7
2023-02-28T16:03:54.825Z,10.7
2023-02-28T16:05:03.190Z,10.7
2023-02-28T16:06:11.772Z,11.2
2023-02-28T16:07:20.150Z,11.2
2023-02-28T16:08:28.529Z,11.2
2023-02-28T16:09:37.110Z,11.3